Time;durP1;ratioP1;P1;durP2;ratioP2;P2;SDS_P1;SDS_P2;PMS_P1;PMS_P2;Temp;Humidity;BMP_temperature;BMP_pressure;BME280_temperature;BME280_humidity;BME280_pressure;Samples;Min_cycle;Max_cycle;Signal;HPM_P1;HPM_P2
2023/04/28 00:01:14;;;;;;;2.42;1.67;;;;;;;-143.29;100.00;62188.47;4896340;29;20024;-84
2023/04/28 00:03:39;;;;;;;2.00;1.70;;;;;;;-143.29;100.00;62188.47;4892394;29;20039;-83
2023/04/28 00:06:05;;;;;;;2.17;1.58;;;;;;;-143.29;100.00;62188.47;4894773;29;20115;-84
2023/04/28 00:08:31;;;;;;;1.55;1.10;;;;;;;-143.29;100.00;62188.47;4894769;29;20067;-84
2023/04/28 00:10:56;;;;;;;1.23;1.13;;;;;;;-143.29;100.00;62188.47;4895031;29;20056;-84
2023/04/28 00:13:21;;;;;;;1.73;1.00;;;;;;;-143.29;100.00;62188.47;4894131;29;21052;-84
2023/04/28 00:15:48;;;;;;;1.60;1.00;;;;;;;-143.29;100.00;62188.47;4896009;29;20050;-84
2023/04/28 00:18:14;;;;;;;2.13;0.95;;;;;;;-143.29;100.00;62188.47;4894460;29;20387;-84
2023/04/28 00:20:39;;;;;;;1.02;0.90;;;;;;;-143.29;100.00;62188.47;4897520;29;20032;-84
2023/04/28 00:23:05;;;;;;;4.07;1.08;;;;;;;-143.29;100.00;62188.47;4892112;29;20436;-84
2023/04/28 00:25:30;;;;;;;2.05;1.00;;;;;;;-143.29;100.00;62188.47;4896297;29;20036;-84
2023/04/28 00:27:55;;;;;;;1.73;0.95;;;;;;;-143.29;100.00;62188.47;4894751;29;20542;-84
2023/04/28 00:30:21;;;;;;;1.45;0.85;;;;;;;-143.29;100.00;62188.47;4894280;29;20029;-84
2023/04/28 00:32:46;;;;;;;1.20;0.75;;;;;;;-143.29;100.00;62188.47;4895720;29;20032;-85
2023/04/28 00:35:12;;;;;;;0.73;0.63;;;;;;;-143.29;100.00;62188.47;4893175;29;20046;-84
2023/04/28 00:37:38;;;;;;;1.10;0.90;;;;;;;-143.29;100.00;62188.47;4894302;29;20025;-85
2023/04/28 00:40:04;;;;;;;1.00;0.77;;;;;;;-143.29;100.00;62188.47;4894332;29;20052;-85
2023/04/28 00:42:30;;;;;;;0.80;0.70;;;;;;;-143.29;100.00;62188.47;4895578;29;20037;-84
2023/04/28 00:44:55;;;;;;;0.68;0.60;;;;;;;-143.29;100.00;62188.47;4897700;29;20032;-85
2023/04/28 00:47:21;;;;;;;0.90;0.68;;;;;;;-143.29;100.00;62188.47;4893562;29;20040;-85
2023/04/28 00:49:48;;;;;;;1.20;0.43;;;;;;;-143.29;100.00;62188.47;4895083;29;20100;-85
2023/04/28 00:52:14;;;;;;;0.77;0.50;;;;;;;-143.29;100.00;62188.47;4893527;29;20033;-85
2023/04/28 00:54:41;;;;;;;0.70;0.60;;;;;;;-143.29;100.00;62188.47;4894667;29;20028;-85
2023/04/28 00:57:08;;;;;;;0.57;0.57;;;;;;;-143.29;100.00;62188.47;4891502;29;20058;-85
2023/04/28 00:59:34;;;;;;;1.02;0.60;;;;;;;-143.29;100.00;62188.47;4891534;29;20531;-85
2023/04/28 01:02:00;;;;;;;1.63;0.80;;;;;;;-143.29;100.00;62188.47;4893000;29;20119;-85
2023/04/28 01:04:27;;;;;;;0.38;0.38;;;;;;;-143.29;100.00;62188.47;4895121;29;20064;-85
2023/04/28 01:06:54;;;;;;;0.60;0.40;;;;;;;-143.29;100.00;62188.47;4893882;29;20045;-85
2023/04/28 01:09:20;;;;;;;0.50;0.40;;;;;;;-143.29;100.00;62188.47;4894791;29;20511;-85
2023/04/28 01:11:46;;;;;;;0.60;0.50;;;;;;;-143.29;100.00;62188.47;4895189;29;20029;-85
2023/04/28 01:14:11;;;;;;;0.55;0.40;;;;;;;-143.29;100.00;62188.47;4895117;29;20088;-85
2023/04/28 01:16:37;;;;;;;0.68;0.60;;;;;;;-143.29;100.00;62188.47;4893405;29;20044;-85
2023/04/28 01:19:13;;;;;;;0.55;0.40;;;;;;;-143.29;100.00;62188.47;4894138;29;20033;-85
2023/04/28 01:21:38;;;;;;;0.88;0.70;;;;;;;-143.29;100.00;62188.47;4890990;29;20033;-85
2023/04/28 01:24:05;;;;;;;0.50;0.47;;;;;;;-143.29;100.00;62188.47;4891861;29;20032;-85
2023/04/28 01:26:30;;;;;;;0.88;0.50;;;;;;;-143.29;100.00;62188.47;4894122;29;20458;-85
2023/04/28 01:28:55;;;;;;;0.70;0.60;;;;;;;-143.29;100.00;62188.47;4893370;29;20060;-84
2023/04/28 01:31:21;;;;;;;0.30;0.30;;;;;;;-143.29;100.00;62188.47;4891459;29;20459;-84
2023/04/28 01:33:46;;;;;;;1.00;0.55;;;;;;;-143.29;100.00;62188.47;4894314;29;20387;-84
2023/04/28 01:36:11;;;;;;;0.60;0.30;;;;;;;-143.29;100.00;62188.47;4893758;29;20037;-84
2023/04/28 01:38:37;;;;;;;0.88;0.57;;;;;;;-143.29;100.00;62188.47;4894869;29;20136;-85
2023/04/28 01:41:02;;;;;;;0.30;0.30;;;;;;;-143.29;100.00;62188.47;4893587;29;20047;-85
2023/04/28 01:43:28;;;;;;;0.52;0.38;;;;;;;-143.29;100.00;62188.47;4893862;29;20041;-84
2023/04/28 01:45:53;;;;;;;0.57;0.30;;;;;;;-143.29;100.00;62188.47;4893910;29;20033;-84
2023/04/28 01:48:19;;;;;;;1.27;0.40;;;;;;;-143.29;100.00;62188.47;4894160;29;20591;-84
2023/04/28 01:50:44;;;;;;;0.50;0.30;;;;;;;-143.29;100.00;62188.47;4892448;29;20387;-84
2023/04/28 01:53:10;;;;;;;0.20;0.20;;;;;;;-143.29;100.00;62188.47;4897099;29;20332;-84
2023/04/28 01:55:37;;;;;;;0.20;0.13;;;;;;;-143.29;100.00;62188.47;4894929;29;20059;-84
2023/04/28 01:58:02;;;;;;;0.43;0.30;;;;;;;-143.29;100.00;62188.47;4892789;29;20043;-84
2023/04/28 02:00:28;;;;;;;1.50;0.25;;;;;;;-143.29;100.00;62188.47;4891355;29;20024;-85
2023/04/28 02:02:53;;;;;;;0.43;0.20;;;;;;;-143.29;100.00;62188.47;4892864;29;20039;-84
2023/04/28 02:05:18;;;;;;;0.47;0.20;;;;;;;-143.29;100.00;62188.47;4894473;29;20443;-85
2023/04/28 02:07:44;;;;;;;0.60;0.30;;;;;;;-143.29;100.00;62188.47;4894783;29;20403;-84
2023/04/28 02:10:09;;;;;;;0.40;0.28;;;;;;;-143.29;100.00;62188.47;4892310;29;20040;-84
2023/04/28 02:12:35;;;;;;;0.40;0.20;;;;;;;-143.29;100.00;62188.47;4894077;29;20028;-84
2023/04/28 02:15:00;;;;;;;1.05;0.30;;;;;;;-143.29;100.00;62188.47;4891370;29;20028;-84
2023/04/28 02:17:25;;;;;;;0.70;0.20;;;;;;;-143.29;100.00;62188.47;4894994;29;20091;-84
2023/04/28 02:19:57;;;;;;;0.65;0.30;;;;;;;-143.29;100.00;62188.47;4894616;29;20115;-85
2023/04/28 02:22:23;;;;;;;0.40;0.20;;;;;;;-143.29;100.00;62188.47;4896137;29;20208;-85
2023/04/28 02:24:48;;;;;;;0.35;0.15;;;;;;;-143.29;100.00;62188.47;4894070;29;20028;-85
2023/04/28 02:27:15;;;;;;;0.30;0.20;;;;;;;-143.29;100.00;62188.47;4896073;29;20049;-85
2023/04/28 02:29:41;;;;;;;0.73;0.20;;;;;;;-143.29;100.00;62188.47;4897757;29;20471;-85
2023/04/28 02:32:06;;;;;;;0.32;0.20;;;;;;;-143.29;100.00;62188.47;4895654;29;20444;-84
2023/04/28 02:34:32;;;;;;;0.13;0.13;;;;;;;-143.29;100.00;62188.47;4896827;29;20479;-86
2023/04/28 02:36:57;;;;;;;1.63;0.20;;;;;;;-143.29;100.00;62188.47;4898780;29;20039;-86
2023/04/28 02:39:25;;;;;;;0.30;0.20;;;;;;;-143.29;100.00;62188.47;4894707;29;20115;-87
2023/04/28 02:41:54;;;;;;;0.30;0.13;;;;;;;-143.29;100.00;62188.47;4898745;29;20029;-86
2023/04/28 02:44:20;;;;;;;0.77;0.25;;;;;;;-143.29;100.00;62188.47;4895106;29;20024;-86
2023/04/28 02:46:45;;;;;;;0.73;0.20;;;;;;;-143.29;100.00;62188.47;4899087;29;20039;-85
2023/04/28 02:49:11;;;;;;;0.10;0.10;;;;;;;-143.29;100.00;62188.47;4891392;29;20029;-86
2023/04/28 02:51:36;;;;;;;1.05;0.45;;;;;;;-143.29;100.00;62188.47;4894052;29;20032;-88
2023/04/28 02:54:02;;;;;;;0.82;0.20;;;;;;;-143.29;100.00;62188.47;4895120;29;20029;-87
2023/04/28 02:56:28;;;;;;;0.52;0.10;;;;;;;-143.29;100.00;62188.47;4896300;29;20039;-86
2023/04/28 02:58:54;;;;;;;0.03;0.00;;;;;;;-143.29;100.00;62188.47;4895108;29;20111;-87
2023/04/28 03:01:19;;;;;;;0.30;0.10;;;;;;;-143.29;100.00;62188.47;4895739;29;20448;-87
2023/04/28 03:03:45;;;;;;;0.50;0.13;;;;;;;-143.29;100.00;62188.47;4893196;29;20031;-88
2023/04/28 03:06:10;;;;;;;0.30;0.15;;;;;;;-143.29;100.00;62188.47;4896298;29;20033;-88
2023/04/28 03:08:35;;;;;;;0.20;0.10;;;;;;;-143.29;100.00;62188.47;4895253;29;20020;-86
2023/04/28 03:11:01;;;;;;;1.02;0.10;;;;;;;-143.29;100.00;62188.47;4894816;29;20063;-85
2023/04/28 03:13:28;;;;;;;0.25;0.20;;;;;;;-143.29;100.00;62188.47;4896087;29;20088;-86
2023/04/28 03:15:54;;;;;;;1.00;0.10;;;;;;;-143.29;100.00;62188.47;4899815;29;20108;-86
2023/04/28 03:18:21;;;;;;;0.20;0.10;;;;;;;-143.29;100.00;62188.47;4894780;29;20116;-86
2023/04/28 03:20:46;;;;;;;0.22;0.10;;;;;;;-143.29;100.00;62188.47;4897625;29;20264;-85
2023/04/28 03:23:12;;;;;;;1.65;0.20;;;;;;;-143.29;100.00;62188.47;4897182;29;20629;-85
2023/04/28 03:25:37;;;;;;;0.10;0.05;;;;;;;-143.29;100.00;62188.47;4894131;29;20044;-87
2023/04/28 03:28:02;;;;;;;0.20;0.20;;;;;;;-143.29;100.00;62188.47;4894070;29;20025;-87
2023/04/28 03:30:28;;;;;;;0.73;0.10;;;;;;;-143.29;100.00;62188.47;4893022;29;20124;-85
2023/04/28 03:32:53;;;;;;;0.73;0.30;;;;;;;-143.29;100.00;62188.47;4893038;29;20092;-86
2023/04/28 03:35:18;;;;;;;0.43;0.20;;;;;;;-143.29;100.00;62188.47;4896440;29;20032;-85
2023/04/28 03:37:44;;;;;;;0.20;0.10;;;;;;;-143.29;100.00;62188.47;4891262;29;20032;-85
2023/04/28 03:40:10;;;;;;;0.00;0.00;;;;;;;-143.29;100.00;62188.47;4896082;29;20123;-85
2023/04/28 03:42:35;;;;;;;0.75;0.35;;;;;;;-143.29;100.00;62188.47;4896053;29;20036;-85
2023/04/28 03:45:01;;;;;;;0.10;0.10;;;;;;;-143.29;100.00;62188.47;4895300;29;20033;-86
2023/04/28 03:47:27;;;;;;;0.22;0.17;;;;;;;-143.29;100.00;62188.47;4895513;29;20037;-87
2023/04/28 03:49:52;;;;;;;0.00;0.00;;;;;;;-143.29;100.00;62188.47;4895324;29;20461;-87
2023/04/28 03:52:18;;;;;;;0.30;0.13;;;;;;;-143.29;100.00;62188.47;4894020;29;20090;-87
2023/04/28 03:54:43;;;;;;;0.80;0.10;;;;;;;-143.29;100.00;62188.47;4893542;29;20479;-86
2023/04/28 03:57:08;;;;;;;0.17;0.10;;;;;;;-143.29;100.00;62188.47;4896289;29;20130;-86
2023/04/28 03:59:34;;;;;;;3.67;0.17;;;;;;;-143.29;100.00;62188.47;4894981;29;20124;-86
2023/04/28 04:01:59;;;;;;;0.35;0.10;;;;;;;-143.29;100.00;62188.47;4893497;29;20041;-86
2023/04/28 04:04:25;;;;;;;0.25;0.20;;;;;;;-143.29;100.00;62188.47;4896026;29;20040;-86
2023/04/28 04:06:51;;;;;;;0.00;0.00;;;;;;;-143.29;100.00;62188.47;4895456;29;20049;-86
2023/04/28 04:09:16;;;;;;;0.10;0.10;;;;;;;-143.29;100.00;62188.47;4896744;29;20032;-86
2023/04/28 04:11:42;;;;;;;0.50;0.10;;;;;;;-143.29;100.00;62188.47;4895205;29;20032;-87
2023/04/28 04:14:07;;;;;;;0.73;0.20;;;;;;;-143.29;100.00;62188.47;4896329;29;20399;-87
2023/04/28 04:16:32;;;;;;;0.28;0.20;;;;;;;-143.29;100.00;62188.47;4897380;29;20028;-87
2023/04/28 04:18:58;;;;;;;0.15;0.10;;;;;;;-143.29;100.00;62188.47;4893257;29;20071;-87
2023/04/28 04:21:23;;;;;;;0.52;0.10;;;;;;;-143.29;100.00;62188.47;4893664;29;20391;-87
2023/04/28 04:23:48;;;;;;;0.10;0.05;;;;;;;-143.29;100.00;62188.47;4895697;29;20395;-87
2023/04/28 04:26:14;;;;;;;0.10;0.10;;;;;;;-143.29;100.00;62188.47;4895923;29;20517;-87
2023/04/28 04:28:39;;;;;;;0.20;0.10;;;;;;;-143.29;100.00;62188.47;4893902;29;20031;-87
2023/04/28 04:31:05;;;;;;;0.10;0.00;;;;;;;-143.29;100.00;62188.47;4895276;29;20395;-89
2023/04/28 04:33:30;;;;;;;0.10;0.00;;;;;;;-143.29;100.00;62188.47;4892780;29;20024;-87
2023/04/28 04:35:56;;;;;;;0.10;0.10;;;;;;;-143.29;100.00;62188.47;4896249;29;20100;-87
2023/04/28 04:38:21;;;;;;;0.00;0.00;;;;;;;-143.29;100.00;62188.47;4895352;29;20035;-87
2023/04/28 04:40:46;;;;;;;0.10;0.00;;;;;;;-143.29;100.00;62188.47;4893534;29;20115;-87
2023/04/28 04:43:12;;;;;;;0.03;0.00;;;;;;;-143.29;100.00;62188.47;4893148;29;20081;-87
2023/04/28 04:45:38;;;;;;;0.35;0.10;;;;;;;-143.29;100.00;62188.47;4892544;29;20036;-87
2023/04/28 04:48:03;;;;;;;0.00;0.00;;;;;;;-143.29;100.00;62188.47;4894085;29;20387;-87
2023/04/28 04:50:29;;;;;;;0.13;0.00;;;;;;;-143.29;100.00;62188.47;4894363;29;20028;-87
2023/04/28 04:52:56;;;;;;;0.03;0.00;;;;;;;-143.29;100.00;62188.47;4893510;29;21506;-87
2023/04/28 04:55:21;;;;;;;0.00;0.00;;;;;;;-143.29;100.00;62188.47;4893394;29;20029;-87
2023/04/28 04:57:47;;;;;;;0.30;0.03;;;;;;;-143.29;100.00;62188.47;4895361;29;20383;-87
2023/04/28 05:00:12;;;;;;;0.10;0.00;;;;;;;-143.29;100.00;62188.47;4895881;29;20415;-87
2023/04/28 05:02:38;;;;;;;0.30;0.00;;;;;;;-143.29;100.00;62188.47;4894646;29;20037;-88
2023/04/28 05:05:04;;;;;;;0.05;0.00;;;;;;;-143.29;100.00;62188.47;4894632;29;20037;-88
2023/04/28 05:07:30;;;;;;;0.63;0.08;;;;;;;-143.29;100.00;62188.47;4891701;29;20092;-88
2023/04/28 05:09:55;;;;;;;0.08;0.00;;;;;;;-143.29;100.00;62188.47;4897716;29;20543;-88
2023/04/28 05:12:21;;;;;;;0.00;0.00;;;;;;;-143.29;100.00;62188.47;4893404;29;20035;-88
2023/04/28 05:14:46;;;;;;;0.10;0.00;;;;;;;-143.29;100.00;62188.47;4894546;29;20127;-88
2023/04/28 05:17:11;;;;;;;1.48;0.00;;;;;;;-143.29;100.00;62188.47;4895626;29;20043;-88
2023/04/28 05:19:37;;;;;;;0.32;0.00;;;;;;;-143.29;100.00;62188.47;4897391;29;20024;-88
2023/04/28 05:22:02;;;;;;;0.17;0.00;;;;;;;-143.29;100.00;62188.47;4893995;29;20465;-88
2023/04/28 05:24:28;;;;;;;0.10;0.05;;;;;;;-143.29;100.00;62188.47;4892928;29;20024;-88
2023/04/28 05:26:53;;;;;;;1.55;0.10;;;;;;;-143.29;100.00;62188.47;4894586;29;20033;-88
2023/04/28 05:29:21;;;;;;;0.10;0.00;;;;;;;-143.29;100.00;62188.47;4892505;29;20495;-88
2023/04/28 05:31:47;;;;;;;0.00;0.00;;;;;;;-143.29;100.00;62188.47;4893962;29;20029;-88
2023/04/28 05:34:12;;;;;;;7.57;0.20;;;;;;;-143.29;100.00;62188.47;4893943;29;20381;-88
2023/04/28 05:36:38;;;;;;;0.13;0.00;;;;;;;-143.29;100.00;62188.47;4893246;29;20024;-88
2023/04/28 05:39:03;;;;;;;0.13;0.00;;;;;;;-143.29;100.00;62188.47;4893021;29;20391;-88
2023/04/28 05:41:28;;;;;;;0.10;0.00;;;;;;;-143.29;100.00;62188.47;4894877;29;20081;-88
2023/04/28 05:43:54;;;;;;;0.00;0.00;;;;;;;-143.29;100.00;62188.47;4894734;29;20037;-88
2023/04/28 05:46:19;;;;;;;0.20;0.00;;;;;;;-143.29;100.00;62188.47;4895447;29;20037;-88
2023/04/28 05:48:45;;;;;;;0.00;0.00;;;;;;;-143.29;100.00;62188.47;4892320;29;20361;-88
2023/04/28 05:51:10;;;;;;;0.00;0.00;;;;;;;-143.29;100.00;62188.47;4894806;29;20032;-88
2023/04/28 05:53:35;;;;;;;0.00;0.00;;;;;;;-143.29;100.00;62188.47;4893529;29;20024;-88
2023/04/28 05:56:01;;;;;;;0.00;0.00;;;;;;;-143.29;100.00;62188.47;4896563;29;20032;-88
2023/04/28 05:58:27;;;;;;;0.00;0.00;;;;;;;-143.29;100.00;62188.47;4897896;29;20017;-88
2023/04/28 06:00:53;;;;;;;0.10;0.00;;;;;;;-143.29;100.00;62188.47;4894570;29;20437;-88
2023/04/28 06:03:19;;;;;;;0.22;0.00;;;;;;;-143.29;100.00;62188.47;4898584;29;20505;-87
2023/04/28 06:05:44;;;;;;;0.20;0.03;;;;;;;-143.29;100.00;62188.47;4898108;29;20041;-88
2023/04/28 06:08:10;;;;;;;0.68;0.10;;;;;;;-143.29;100.00;62188.47;4897099;29;20527;-87
2023/04/28 06:10:35;;;;;;;0.00;0.00;;;;;;;-143.29;100.00;62188.47;4897460;29;20112;-87
2023/04/28 06:13:03;;;;;;;0.10;0.00;;;;;;;-143.29;100.00;62188.47;4895908;29;20496;-88
2023/04/28 06:15:29;;;;;;;0.00;0.00;;;;;;;-143.29;100.00;62188.47;4897726;29;20040;-88
2023/04/28 06:17:54;;;;;;;0.00;0.00;;;;;;;-143.29;100.00;62188.47;4898642;29;20036;-87
2023/04/28 06:20:20;;;;;;;1.02;0.08;;;;;;;-143.29;100.00;62188.47;4897760;29;20541;-88
2023/04/28 06:22:45;;;;;;;0.20;0.00;;;;;;;-143.29;100.00;62188.47;4897557;29;20104;-88
2023/04/28 06:25:10;;;;;;;0.60;0.10;;;;;;;-143.29;100.00;62188.47;4902847;29;20033;-88
2023/04/28 06:27:36;;;;;;;0.45;0.00;;;;;;;-143.29;100.00;62188.47;4896326;29;20051;-88
2023/04/28 06:30:01;;;;;;;0.55;0.00;;;;;;;-143.29;100.00;62188.47;4896156;29;20503;-88
2023/04/28 06:32:26;;;;;;;0.15;0.00;;;;;;;-143.29;100.00;62188.47;4897395;29;20028;-88
2023/04/28 06:34:52;;;;;;;1.70;0.10;;;;;;;-143.29;100.00;62188.47;4897961;29;20440;-88
2023/04/28 06:37:17;;;;;;;0.20;0.00;;;;;;;-143.29;100.00;62188.47;4895678;29;20039;-88
2023/04/28 06:39:43;;;;;;;0.00;0.00;;;;;;;-143.29;100.00;62188.47;4897286;29;20112;-87
2023/04/28 06:42:08;;;;;;;0.28;0.00;;;;;;;-143.29;100.00;62188.47;4898387;29;20387;-87
2023/04/28 06:44:34;;;;;;;0.50;0.03;;;;;;;-143.29;100.00;62188.47;4896314;29;20037;-87
2023/04/28 06:46:59;;;;;;;0.10;0.00;;;;;;;-143.29;100.00;62188.47;4896867;29;20032;-88
2023/04/28 06:49:25;;;;;;;0.88;0.10;;;;;;;-143.29;100.00;62188.47;4896377;29;20529;-88
2023/04/28 06:51:50;;;;;;;0.75;0.10;;;;;;;-143.29;100.00;62188.47;4893465;29;20088;-88
2023/04/28 06:54:16;;;;;;;0.20;0.05;;;;;;;-143.29;100.00;62188.47;4895876;29;20028;-88
2023/04/28 06:56:41;;;;;;;0.17;0.10;;;;;;;-143.29;100.00;62188.47;4901153;29;20383;-88
2023/04/28 06:59:07;;;;;;;1.35;0.10;;;;;;;-143.29;100.00;62188.47;4896254;29;20024;-88
2023/04/28 07:01:32;;;;;;;0.17;0.00;;;;;;;-143.29;100.00;62188.47;4895393;29;20471;-87
2023/04/28 07:03:57;;;;;;;0.22;0.10;;;;;;;-143.29;100.00;62188.47;4895008;29;20119;-88
2023/04/28 07:06:23;;;;;;;0.30;0.10;;;;;;;-143.29;100.00;62188.47;4897389;29;20073;-87
2023/04/28 07:08:48;;;;;;;6.15;0.30;;;;;;;-143.29;100.00;62188.47;4893175;29;20146;-87
2023/04/28 07:11:15;;;;;;;0.65;0.25;;;;;;;-143.29;100.00;62188.47;4897007;29;20029;-88
2023/04/28 07:13:40;;;;;;;0.20;0.17;;;;;;;-143.29;100.00;62188.47;4893634;29;20040;-86
2023/04/28 07:16:06;;;;;;;0.77;0.20;;;;;;;-143.29;100.00;62188.47;4897858;29;20029;-88
2023/04/28 07:18:32;;;;;;;0.57;0.15;;;;;;;-143.29;100.00;62188.47;4893774;29;20032;-89
2023/04/28 07:20:57;;;;;;;1.40;0.10;;;;;;;-143.29;100.00;62188.47;4897529;29;20036;-87
2023/04/28 07:23:22;;;;;;;0.55;0.20;;;;;;;-143.29;100.00;62188.47;4896009;29;20487;-85
2023/04/28 07:25:48;;;;;;;0.40;0.15;;;;;;;-143.29;100.00;62188.47;4895292;29;20124;-86
2023/04/28 07:28:13;;;;;;;0.20;0.10;;;;;;;-143.29;100.00;62188.47;4895041;29;20036;-87
2023/04/28 07:30:39;;;;;;;2.58;1.20;;;;;;;-143.29;100.00;62188.47;4895532;29;20081;-88
2023/04/28 07:33:04;;;;;;;2.55;1.27;;;;;;;-143.29;100.00;62188.47;4894800;29;20029;-86
2023/04/28 07:35:29;;;;;;;2.50;1.08;;;;;;;-143.29;100.00;62188.47;4894922;29;20119;-87
2023/04/28 07:37:56;;;;;;;3.28;1.15;;;;;;;-143.29;100.00;62188.47;4894888;29;20059;-89
2023/04/28 07:40:22;;;;;;;15.27;6.35;;;;;;;-143.29;100.00;62188.47;4895994;29;20024;-85
2023/04/28 07:42:48;;;;;;;18.83;7.05;;;;;;;-143.29;100.00;62188.47;4896749;29;20032;-85
2023/04/28 07:45:13;;;;;;;7.63;3.53;;;;;;;-143.29;100.00;62188.47;4895808;29;20040;-85
2023/04/28 07:47:38;;;;;;;6.65;2.90;;;;;;;-143.29;100.00;62188.47;4893852;29;20040;-87
2023/04/28 07:50:05;;;;;;;6.47;3.10;;;;;;;-143.29;100.00;62188.47;4894781;29;20033;-87
2023/04/28 07:52:34;;;;;;;4.72;2.78;;;;;;;-143.29;100.00;62188.47;4892965;29;20051;-85
2023/04/28 07:55:01;;;;;;;6.22;2.63;;;;;;;-143.29;100.00;62188.47;4893097;29;20032;-85
2023/04/28 07:57:28;;;;;;;8.65;3.33;;;;;;;-143.29;100.00;62188.47;4896669;29;20043;-83
2023/04/28 07:59:53;;;;;;;9.45;2.80;;;;;;;-143.29;100.00;62188.47;4892660;29;20036;-83
2023/04/28 08:02:19;;;;;;;6.32;2.40;;;;;;;-143.29;100.00;62188.47;4892347;29;20037;-83
2023/04/28 08:04:45;;;;;;;5.47;3.05;;;;;;;-143.29;100.00;62188.47;4894242;29;20491;-83
2023/04/28 08:07:11;;;;;;;6.35;2.83;;;;;;;-143.29;100.00;62188.47;4894883;29;20100;-83
2023/04/28 08:09:36;;;;;;;5.25;2.70;;;;;;;-143.29;100.00;62188.47;4894811;29;20492;-83
2023/04/28 08:12:02;;;;;;;5.95;3.28;;;;;;;-143.29;100.00;62188.47;4894169;29;20125;-83
2023/04/28 08:14:28;;;;;;;6.45;2.60;;;;;;;-143.29;100.00;62188.47;4895964;29;20042;-83
2023/04/28 08:16:54;;;;;;;4.25;2.40;;;;;;;-143.29;100.00;62188.47;4894083;29;20119;-83
2023/04/28 08:19:20;;;;;;;4.95;2.40;;;;;;;-143.29;100.00;62188.47;4893547;29;20067;-83
2023/04/28 08:21:45;;;;;;;4.07;2.00;;;;;;;-143.29;100.00;62188.47;4894131;29;20036;-83
2023/04/28 08:24:11;;;;;;;4.75;2.35;;;;;;;-143.29;100.00;62188.47;4894395;29;20036;-83
2023/04/28 08:26:37;;;;;;;5.60;2.35;;;;;;;-143.29;100.00;62188.47;4895704;29;20032;-83
2023/04/28 08:29:03;;;;;;;4.70;2.17;;;;;;;-143.29;100.00;62188.47;4894380;29;20384;-83
2023/04/28 08:31:28;;;;;;;3.08;1.83;;;;;;;-143.29;100.00;62188.47;4894361;29;20100;-82
2023/04/28 08:33:53;;;;;;;4.82;2.03;;;;;;;-143.29;100.00;62188.47;4903824;29;20243;-83
2023/04/28 08:36:20;;;;;;;3.22;1.65;;;;;;;-143.29;100.00;62188.47;4893896;29;20100;-83
2023/04/28 08:38:46;;;;;;;5.43;2.20;;;;;;;-143.29;100.00;62188.47;4894425;29;20028;-83
2023/04/28 08:41:15;;;;;;;3.10;2.03;;;;;;;-143.29;100.00;62188.47;4895255;29;20029;-83
2023/04/28 08:43:42;;;;;;;3.08;1.90;;;;;;;-143.29;100.00;62188.47;4895855;29;20028;-83
2023/04/28 08:46:08;;;;;;;4.40;1.98;;;;;;;-143.29;100.00;62188.47;4896303;29;20033;-83
2023/04/28 08:48:45;;;;;;;3.13;1.75;;;;;;;-143.29;100.00;62188.47;4894039;29;20132;-83
2023/04/28 08:51:18;;;;;;;2.85;1.58;;;;;;;-143.29;100.00;62188.47;4893135;29;20032;-83
2023/04/28 08:53:49;;;;;;;2.50;1.65;;;;;;;-143.29;100.00;62188.47;4890364;29;20036;-82
2023/04/28 08:56:15;;;;;;;2.63;1.40;;;;;;;-143.29;100.00;62188.47;4895157;29;20036;-82
2023/04/28 08:58:41;;;;;;;2.10;1.42;;;;;;;-143.29;100.00;62188.47;4892511;29;20044;-82
2023/04/28 09:01:08;;;;;;;3.35;1.25;;;;;;;-143.29;100.00;62188.47;4893866;29;20456;-82
2023/04/28 09:03:33;;;;;;;2.00;1.60;;;;;;;-143.29;100.00;62188.47;4895030;29;20036;-82
2023/04/28 09:06:00;;;;;;;4.57;1.60;;;;;;;-143.29;100.00;62188.47;4891367;29;20443;-82
2023/04/28 09:08:26;;;;;;;3.17;1.48;;;;;;;-143.29;100.00;62188.47;4894419;29;20680;-83
2023/04/28 09:11:08;;;;;;;4.20;1.45;;;;;;;-143.29;100.00;62188.47;4898193;29;20032;-82
2023/04/28 09:13:34;;;;;;;4.38;1.70;;;;;;;-143.29;100.00;62188.47;4892550;29;20103;-82
2023/04/28 09:16:01;;;;;;;4.45;2.08;;;;;;;-143.29;100.00;62188.47;4894148;29;20060;-82
2023/04/28 09:18:27;;;;;;;5.10;1.83;;;;;;;-143.29;100.00;62188.47;4889033;29;20444;-82
2023/04/28 09:21:01;;;;;;;3.13;1.42;;;;;;;-143.29;100.00;62188.47;4892081;29;20070;-87
2023/04/28 09:23:27;;;;;;;2.08;1.40;;;;;;;-143.29;100.00;62188.47;4891389;29;20037;-88
2023/04/28 09:26:05;;;;;;;3.10;2.15;;;;;;;-143.29;100.00;62188.47;4893043;29;20025;-85
2023/04/28 09:28:32;;;;;;;4.55;2.85;;;;;;;-143.29;100.00;62188.47;4892413;29;20135;-85
2023/04/28 09:30:57;;;;;;;4.25;2.05;;;;;;;-143.29;100.00;62188.47;4900613;29;20020;-84
2023/04/28 09:33:23;;;;;;;6.00;2.17;;;;;;;-143.29;100.00;62188.47;4893230;29;20138;-86
2023/04/28 09:35:48;;;;;;;2.88;2.25;;;;;;;-143.29;100.00;62188.47;4890847;29;20332;-84
2023/04/28 09:38:14;;;;;;;4.40;1.67;;;;;;;-143.29;100.00;62188.47;4899332;29;20037;-84
2023/04/28 09:41:02;;;;;;;2.55;1.67;;;;;;;-143.29;100.00;62188.47;4896853;29;20440;-86
2023/04/28 09:43:29;;;;;;;3.15;1.83;;;;;;;-143.29;100.00;62188.47;4899726;29;20028;-88
2023/04/28 09:45:56;;;;;;;2.83;1.42;;;;;;;-143.29;100.00;62188.47;4896886;29;20083;-85
2023/04/28 09:48:32;;;;;;;5.00;1.90;;;;;;;-143.29;100.00;62188.47;4896585;29;20040;-86
2023/04/28 09:51:00;;;;;;;3.00;1.63;;;;;;;-143.29;100.00;62188.47;4895099;29;20801;-86
2023/04/28 09:53:26;;;;;;;3.35;1.20;;;;;;;-143.29;100.00;62188.47;4896240;29;20028;-85
2023/04/28 09:55:53;;;;;;;4.63;1.92;;;;;;;-143.29;100.00;62188.47;4898264;29;20052;-86
2023/04/28 09:58:20;;;;;;;8.20;1.73;;;;;;;-143.29;100.00;62188.47;4895513;29;20394;-86
2023/04/28 10:00:53;;;;;;;4.25;1.50;;;;;;;-143.29;100.00;62188.47;4892870;29;20394;-85
2023/04/28 10:03:24;;;;;;;2.63;1.80;;;;;;;-143.29;100.00;62188.47;4891235;29;20025;-87
2023/04/28 10:05:52;;;;;;;1.80;1.17;;;;;;;-143.29;100.00;62188.47;4890550;29;20403;-86
2023/04/28 10:08:21;;;;;;;4.60;2.28;;;;;;;-143.29;100.00;62188.47;4893925;29;20499;-87
2023/04/28 10:10:53;;;;;;;4.13;1.35;;;;;;;-143.29;100.00;62188.47;4895581;29;20060;-86
2023/04/28 10:13:19;;;;;;;5.20;1.70;;;;;;;-143.29;100.00;62188.47;4899471;29;20036;-86
2023/04/28 10:15:45;;;;;;;4.75;1.40;;;;;;;-143.29;100.00;62188.47;4896086;29;20040;-86
2023/04/28 10:18:12;;;;;;;4.43;1.40;;;;;;;-143.29;100.00;62188.47;4896246;29;20028;-87
2023/04/28 10:20:39;;;;;;;5.65;1.67;;;;;;;-143.29;100.00;62188.47;4895073;29;20062;-86
2023/04/28 10:23:24;;;;;;;4.50;1.23;;;;;;;-143.29;100.00;62188.47;4896494;29;20036;-85
2023/04/28 10:25:56;;;;;;;2.90;1.60;;;;;;;-143.29;100.00;62188.47;4886169;29;20440;-84
2023/04/28 10:28:22;;;;;;;3.55;1.20;;;;;;;-143.29;100.00;62188.47;4895924;29;20064;-84
2023/04/28 10:31:13;;;;;;;15.57;1.40;;;;;;;-143.29;100.00;62188.47;4897645;29;20044;-81
2023/04/28 10:33:40;;;;;;;3.70;1.13;;;;;;;-143.29;100.00;62188.47;4891752;29;20040;-83
2023/04/28 10:36:06;;;;;;;4.78;1.52;;;;;;;-143.29;100.00;62188.47;4893770;29;20033;-83
2023/04/28 10:38:32;;;;;;;6.90;1.45;;;;;;;-143.29;100.00;62188.47;4894656;29;20451;-83
2023/04/28 10:41:01;;;;;;;1.75;1.15;;;;;;;-143.29;100.00;62188.47;4904202;29;20108;-83
2023/04/28 10:43:27;;;;;;;10.43;1.20;;;;;;;-143.29;100.00;62188.47;4892287;29;20534;-83
2023/04/28 10:45:55;;;;;;;4.68;1.40;;;;;;;-143.29;100.00;62188.47;4899253;29;20033;-83
2023/04/28 10:48:46;;;;;;;1.75;1.08;;;;;;;-143.29;100.00;62188.47;4898116;29;20032;-83
2023/04/28 10:51:14;;;;;;;2.83;1.25;;;;;;;-143.29;100.00;62188.47;4892268;29;20041;-83
2023/04/28 10:53:47;;;;;;;2.63;0.93;;;;;;;-143.29;100.00;62188.47;4897686;29;20033;-83
2023/04/28 10:56:15;;;;;;;4.95;1.50;;;;;;;-143.29;100.00;62188.47;4897540;29;20044;-83
2023/04/28 10:58:42;;;;;;;2.42;0.93;;;;;;;-143.29;100.00;62188.47;4896955;29;20111;-83
2023/04/28 11:01:20;;;;;;;3.13;1.17;;;;;;;-143.29;100.00;62188.47;4897305;29;20546;-83
2023/04/28 11:04:06;;;;;;;3.92;1.42;;;;;;;-143.29;100.00;62188.47;4895608;29;20475;-83
2023/04/28 11:06:33;;;;;;;2.35;1.00;;;;;;;-143.29;100.00;62188.47;4896498;29;20033;-83